createdAt,value
2022-11-14T00:00:26.572Z,62.33
2022-11-14T00:02:54.490Z,62.29
2022-11-14T00:05:23.837Z,62.29
2022-11-14T00:07:51.731Z,62.27
2022-11-14T00:10:19.835Z,62.67
2022-11-14T00:12:47.727Z,62.27
2022-11-14T00:15:15.786Z,62.27
2022-11-14T00:17:43.677Z,62.35
2022-11-14T00:20:12.572Z,62.37
2022-11-14T00:22:41.923Z,62.28
2022-11-14T00:25:10.946Z,62.76
2022-11-14T00:27:38.805Z,62.64
2022-11-14T00:30:07.693Z,62.76
2022-11-14T00:32:35.551Z,62.67
2022-11-14T00:35:03.477Z,62.72
2022-11-14T00:37:31.425Z,62.80
2022-11-14T00:40:00.701Z,62.66
2022-11-14T00:42:28.639Z,62.59
2022-11-14T00:44:56.511Z,62.87
2022-11-14T00:47:24.405Z,62.81
2022-11-14T00:49:52.355Z,62.81
2022-11-14T00:52:20.210Z,62.47
2022-11-14T00:54:48.083Z,62.53
2022-11-14T00:57:17.352Z,62.69
2022-11-14T00:59:45.226Z,62.44
2022-11-14T01:02:13.134Z,62.21
2022-11-14T01:04:41.128Z,62.17
2022-11-14T01:07:09.023Z,62.37
2022-11-14T01:09:36.989Z,62.41
2022-11-14T01:12:05.363Z,62.53
2022-11-14T01:14:34.634Z,62.27
2022-11-14T01:17:02.487Z,62.65
2022-11-14T01:19:30.406Z,62.47
2022-11-14T01:22:01.810Z,62.41
2022-11-14T01:24:33.886Z,62.43
2022-11-14T01:27:01.834Z,62.46
2022-11-14T01:29:29.885Z,62.26
2022-11-14T01:31:59.158Z,62.29
2022-11-14T01:34:27.158Z,62.47
2022-11-14T01:36:55.113Z,62.48
2022-11-14T01:39:23.085Z,62.06
2022-11-14T01:41:50.954Z,62.04
2022-11-14T01:44:39.104Z,62.09
2022-11-14T01:47:08.433Z,62.05
2022-11-14T01:49:38.455Z,62.24
2022-11-14T01:52:07.283Z,62.32
2022-11-14T01:54:37.060Z,62.07
2022-11-14T01:57:05.280Z,62.06
2022-11-14T01:59:34.451Z,61.96
2022-11-14T02:02:05.102Z,61.95
2022-11-14T02:04:35.341Z,62.28
2022-11-14T02:07:04.490Z,62.06
2022-11-14T02:09:34.011Z,62.22
2022-11-14T02:12:02.089Z,62.06
2022-11-14T02:14:29.948Z,61.90
2022-11-14T02:17:22.716Z,62.12
2022-11-14T02:19:48.840Z,62.36
2022-11-14T02:22:18.122Z,62.31
2022-11-14T02:24:46.099Z,62.34
2022-11-14T02:27:14.192Z,62.40
2022-11-14T02:29:42.065Z,62.41
2022-11-14T02:32:11.026Z,62.30
2022-11-14T02:34:39.180Z,62.28
2022-11-14T02:37:07.313Z,61.97
2022-11-14T02:39:36.600Z,62.28
2022-11-14T02:42:04.508Z,61.99
2022-11-14T02:44:32.416Z,62.22
2022-11-14T02:47:00.279Z,62.19
2022-11-14T02:49:28.697Z,61.98
2022-11-14T02:51:56.570Z,62.07
2022-11-14T02:54:24.429Z,61.94
2022-11-14T02:56:53.683Z,62.35
2022-11-14T02:59:21.616Z,62.22
2022-11-14T03:01:49.523Z,62.02
2022-11-14T03:04:17.479Z,62.29
2022-11-14T03:06:45.488Z,62.35
2022-11-14T03:09:13.515Z,62.28
2022-11-14T03:11:41.388Z,62.05
2022-11-14T03:14:10.728Z,62.29
2022-11-14T03:16:38.629Z,62.30
2022-11-14T03:19:06.542Z,62.08
2022-11-14T03:21:34.443Z,62.43
2022-11-14T03:24:02.313Z,62.59
2022-11-14T03:26:30.341Z,62.44
2022-11-14T03:28:58.216Z,62.44
2022-11-14T03:31:27.538Z,62.53
2022-11-14T03:33:55.440Z,62.23
2022-11-14T03:36:23.324Z,62.23
2022-11-14T03:38:51.188Z,62.08
2022-11-14T03:41:19.064Z,62.45
2022-11-14T03:43:47.005Z,62.19
2022-11-14T03:46:14.872Z,62.38
2022-11-14T03:48:44.129Z,62.37
2022-11-14T03:51:12.042Z,62.38
2022-11-14T03:53:39.898Z,62.33
2022-11-14T03:56:08.331Z,62.44
2022-11-14T03:58:36.251Z,62.20
2022-11-14T04:01:04.519Z,61.91
2022-11-14T04:03:32.450Z,62.17
2022-11-14T04:06:01.853Z,62.07
2022-11-14T04:08:30.077Z,62.31
2022-11-14T04:10:58.209Z,61.88
2022-11-14T04:13:26.127Z,62.24
2022-11-14T04:15:57.260Z,62.34
2022-11-14T04:18:25.144Z,62.16
2022-11-14T04:20:53.094Z,62.15
2022-11-14T04:23:22.386Z,62.13
2022-11-14T04:25:50.339Z,61.87
2022-11-14T04:28:18.270Z,62.15
2022-11-14T04:30:46.255Z,61.93
2022-11-14T04:33:14.171Z,62.05
2022-11-14T04:35:42.295Z,61.94
2022-11-14T04:38:10.892Z,62.04
2022-11-14T04:40:40.222Z,61.69
2022-11-14T04:43:08.130Z,61.78
2022-11-14T04:45:36.057Z,62.04
2022-11-14T04:48:04.102Z,62.03
2022-11-14T04:50:32.038Z,61.72
2022-11-14T04:52:59.915Z,61.73
2022-11-14T04:55:27.832Z,61.72
2022-11-14T04:57:57.620Z,61.86
2022-11-14T05:00:25.739Z,61.73
2022-11-14T05:02:53.629Z,61.60
2022-11-14T05:05:21.545Z,62.00
2022-11-14T05:07:49.555Z,61.63
2022-11-14T05:10:17.562Z,61.72
2022-11-14T05:12:45.452Z,61.65
2022-11-14T05:15:14.696Z,61.82
2022-11-14T05:17:42.596Z,61.55
2022-11-14T05:20:11.874Z,61.85
2022-11-14T05:22:39.810Z,61.67
2022-11-14T05:25:08.820Z,61.64
2022-11-14T05:27:36.726Z,61.62
2022-11-14T05:30:05.118Z,61.75
2022-11-14T05:32:34.473Z,61.51
2022-11-14T05:35:02.476Z,61.35
2022-11-14T05:37:30.408Z,61.27
2022-11-14T05:39:58.346Z,61.30
2022-11-14T05:42:26.244Z,61.33
2022-11-14T05:44:54.113Z,61.47
2022-11-14T05:47:22.097Z,61.17
2022-11-14T05:49:51.437Z,61.40
2022-11-14T05:52:19.343Z,61.22
2022-11-14T05:54:47.215Z,61.47
2022-11-14T05:57:15.109Z,61.13
2022-11-14T05:59:42.994Z,61.54
2022-11-14T06:02:11.079Z,61.33
2022-11-14T06:04:39.210Z,61.41
2022-11-14T06:07:08.541Z,61.62
2022-11-14T06:09:36.473Z,61.36
2022-11-14T06:12:06.339Z,61.50
2022-11-14T06:14:34.306Z,61.63
2022-11-14T06:17:02.299Z,61.27
2022-11-14T06:19:30.212Z,61.45
2022-11-14T06:21:58.139Z,61.27
2022-11-14T06:24:27.555Z,61.26
2022-11-14T06:26:55.547Z,61.29
2022-11-14T06:29:23.506Z,61.48
2022-11-14T06:31:51.467Z,61.12
2022-11-14T06:34:19.499Z,61.37
2022-11-14T06:36:47.424Z,61.20
2022-11-14T06:39:15.363Z,61.47
2022-11-14T06:41:44.666Z,61.53
2022-11-14T06:44:12.595Z,61.27
2022-11-14T06:46:40.469Z,61.41
2022-11-14T06:49:08.376Z,61.45
2022-11-14T06:51:36.332Z,61.52
2022-11-14T06:54:04.280Z,61.37
2022-11-14T06:56:32.126Z,61.58
2022-11-14T06:59:01.422Z,61.25
2022-11-14T07:01:29.471Z,61.51
2022-11-14T07:03:58.752Z,61.63
2022-11-14T07:06:27.789Z,61.15
2022-11-14T07:08:55.748Z,61.14
2022-11-14T07:11:25.814Z,61.44
2022-11-14T07:13:54.006Z,61.23
2022-11-14T07:16:25.268Z,61.31
2022-11-14T07:18:53.131Z,61.50
2022-11-14T07:21:21.151Z,61.54
2022-11-14T07:23:49.448Z,61.53
2022-11-14T07:26:17.345Z,61.26
2022-11-14T07:28:48.146Z,61.47
2022-11-14T07:31:20.434Z,61.53
2022-11-14T07:33:49.789Z,61.19
2022-11-14T07:36:17.957Z,61.41
2022-11-14T07:38:45.983Z,61.50
2022-11-14T07:41:14.658Z,61.56
2022-11-14T07:43:42.746Z,61.53
2022-11-14T07:46:13.001Z,61.24
2022-11-14T07:48:41.383Z,61.57
2022-11-14T07:51:11.753Z,61.36
2022-11-14T07:53:39.661Z,61.49
2022-11-14T07:56:12.374Z,61.41
2022-11-14T07:58:41.054Z,61.32
2022-11-14T08:01:09.529Z,61.57
2022-11-14T08:03:42.341Z,61.23
2022-11-14T08:06:15.404Z,61.36
2022-11-14T08:08:43.436Z,61.44
2022-11-14T08:11:11.436Z,61.31
2022-11-14T08:13:39.341Z,61.36
2022-11-14T08:16:12.304Z,61.25
2022-11-14T08:18:41.064Z,61.40
2022-11-14T08:21:09.100Z,61.66
2022-11-14T08:23:38.851Z,61.27
2022-11-14T08:26:07.042Z,61.56
2022-11-14T08:28:35.169Z,61.43
2022-11-14T08:31:03.423Z,61.45
2022-11-14T08:33:32.166Z,61.40
2022-11-14T08:36:02.449Z,61.40
2022-11-14T08:38:30.524Z,61.06
2022-11-14T08:41:00.703Z,61.37
2022-11-14T08:43:28.718Z,61.32
2022-11-14T08:46:01.644Z,61.03
2022-11-14T08:48:30.525Z,61.13
2022-11-14T08:50:58.983Z,61.40
2022-11-14T08:53:26.953Z,61.10
2022-11-14T08:55:54.916Z,60.70
2022-11-14T08:58:24.158Z,61.02
2022-11-14T09:00:52.638Z,60.92
2022-11-14T09:03:20.565Z,60.83
2022-11-14T09:05:53.055Z,61.00
2022-11-14T09:08:21.187Z,61.00
2022-11-14T09:10:49.155Z,60.82
2022-11-14T09:13:17.079Z,60.75
2022-11-14T09:15:46.697Z,60.98
2022-11-14T09:18:15.396Z,61.02
2022-11-14T09:20:43.336Z,61.04
2022-11-14T09:23:11.517Z,60.80
2022-11-14T09:25:39.524Z,60.98
2022-11-14T09:28:07.965Z,60.81
2022-11-14T09:30:36.028Z,60.56
2022-11-14T09:33:11.463Z,60.75
2022-11-14T09:35:40.049Z,60.63
2022-11-14T09:38:08.986Z,60.21
2022-11-14T09:40:45.550Z,60.03
2022-11-14T09:43:21.273Z,60.08
2022-11-14T09:45:50.258Z,60.05
2022-11-14T09:48:20.898Z,60.04
2022-11-14T09:50:51.471Z,60.13
2022-11-14T09:53:21.537Z,60.04
2022-11-14T09:55:49.408Z,59.88
2022-11-14T09:58:19.439Z,59.63
2022-11-14T10:00:49.433Z,59.63
2022-11-14T10:03:21.506Z,59.89
2022-11-14T10:06:01.872Z,59.86
2022-11-14T10:08:43.301Z,59.64
2022-11-14T10:11:11.923Z,59.88
2022-11-14T10:14:15.680Z,60.10
2022-11-14T10:16:45.846Z,60.32
2022-11-14T10:19:20.002Z,60.51
2022-11-14T10:21:54.590Z,60.34
2022-11-14T10:24:48.833Z,60.83
2022-11-14T10:27:19.326Z,60.65
2022-11-14T10:29:57.419Z,60.71
2022-11-14T10:32:31.928Z,60.55
2022-11-14T10:35:03.255Z,60.71
2022-11-14T10:37:33.071Z,61.05
2022-11-14T10:40:04.658Z,60.85
2022-11-14T10:42:33.928Z,61.05
2022-11-14T10:45:04.377Z,60.99
2022-11-14T10:47:36.973Z,60.64
2022-11-14T10:50:16.119Z,60.84
2022-11-14T10:52:44.027Z,60.69
2022-11-14T10:55:15.007Z,60.79
2022-11-14T10:57:43.364Z,60.76
2022-11-14T11:00:13.607Z,60.53
2022-11-14T11:02:49.394Z,60.57
2022-11-14T11:05:19.831Z,60.61
2022-11-14T11:11:11.096Z,60.00
2022-11-14T11:13:43.483Z,60.20
2022-11-14T11:16:12.080Z,59.54
2022-11-14T11:18:40.070Z,59.77
2022-11-14T11:21:11.299Z,59.74
2022-11-14T11:23:49.526Z,59.61
2022-11-14T11:26:19.887Z,59.69
2022-11-14T11:29:03.131Z,59.89
2022-11-14T11:31:36.658Z,59.74
2022-11-14T11:34:04.570Z,59.40
2022-11-14T11:36:33.833Z,59.69
2022-11-14T11:39:01.763Z,59.42
2022-11-14T11:44:19.923Z,59.14
2022-11-14T11:46:50.405Z,59.17
2022-11-14T11:49:19.894Z,59.24
2022-11-14T11:51:49.171Z,59.36
2022-11-14T11:54:18.600Z,58.67
2022-11-14T11:56:47.345Z,58.49
2022-11-14T11:59:22.831Z,57.41
2022-11-14T12:01:51.838Z,56.98
2022-11-14T12:04:19.788Z,56.78
2022-11-14T12:06:51.236Z,56.57
2022-11-14T12:09:20.481Z,56.78
2022-11-14T12:11:50.362Z,56.49
2022-11-14T12:14:31.741Z,56.41
2022-11-14T12:17:21.676Z,55.92
2022-11-14T12:19:56.929Z,55.49
2022-11-14T12:22:35.558Z,55.11
2022-11-14T12:25:10.202Z,54.78
2022-11-14T12:27:50.650Z,54.64
2022-11-14T12:30:20.152Z,54.30
2022-11-14T12:32:50.008Z,54.10
2022-11-14T12:35:20.818Z,54.13
2022-11-14T12:37:55.415Z,54.17
2022-11-14T12:40:32.123Z,54.01
2022-11-14T12:43:00.391Z,53.77
2022-11-14T12:45:59.868Z,53.42
2022-11-14T12:48:32.384Z,52.64
2022-11-14T12:51:00.739Z,52.72
2022-11-14T12:53:45.320Z,52.12
2022-11-14T12:56:31.596Z,52.26
2022-11-14T12:59:26.270Z,51.62
2022-11-14T13:02:03.525Z,51.21
2022-11-14T13:04:35.739Z,51.15
2022-11-14T13:07:21.901Z,51.32
2022-11-14T13:10:14.252Z,50.58
2022-11-14T13:13:00.641Z,50.78
2022-11-14T13:15:50.071Z,50.50
2022-11-14T13:18:39.901Z,50.04
2022-11-14T13:21:34.637Z,50.58
2022-11-14T13:24:02.567Z,50.30
2022-11-14T13:26:48.166Z,49.43
2022-11-14T13:29:51.585Z,49.44
2022-11-14T13:32:52.745Z,48.74
2022-11-14T13:35:25.174Z,48.99
2022-11-14T13:38:00.885Z,49.06
2022-11-14T13:40:29.609Z,49.26
2022-11-14T13:43:01.615Z,48.98
2022-11-14T13:45:50.302Z,48.82
2022-11-14T13:48:51.015Z,48.28
2022-11-14T13:51:42.308Z,48.08
2022-11-14T13:54:17.172Z,48.55
2022-11-14T13:56:53.263Z,48.56
2022-11-14T13:59:37.226Z,48.20
2022-11-14T14:02:28.769Z,47.79
2022-11-14T14:05:02.346Z,47.80
2022-11-14T14:07:34.850Z,47.38
2022-11-14T14:10:07.085Z,47.14
2022-11-14T14:12:50.163Z,47.98
2022-11-14T14:15:23.429Z,51.36
2022-11-14T14:17:57.419Z,49.73
2022-11-14T14:20:32.550Z,49.63
2022-11-14T14:23:03.219Z,48.62
2022-11-14T14:25:34.515Z,47.15
2022-11-14T14:28:08.285Z,46.39
2022-11-14T14:30:37.573Z,45.51
2022-11-14T14:33:12.003Z,41.87
2022-11-14T14:35:41.142Z,40.59
2022-11-14T14:38:12.764Z,40.75
2022-11-14T14:40:41.838Z,39.51
2022-11-14T14:43:15.291Z,38.85
2022-11-14T14:45:48.837Z,38.84
2022-11-14T14:48:17.583Z,38.50
2022-11-14T14:50:50.376Z,38.99
2022-11-14T14:53:20.691Z,39.65
2022-11-14T14:55:53.490Z,40.48
2022-11-14T14:58:26.273Z,41.22
2022-11-14T15:00:56.804Z,41.65
2022-11-14T15:03:24.745Z,42.37
2022-11-14T15:05:59.516Z,42.41
2022-11-14T15:08:28.454Z,42.77
2022-11-14T15:10:58.902Z,43.25
2022-11-14T15:13:27.471Z,43.61
2022-11-14T15:15:57.168Z,43.91
2022-11-14T15:18:26.538Z,44.40
2022-11-14T15:21:17.698Z,44.68
2022-11-14T15:23:45.856Z,45.07
2022-11-14T15:26:16.097Z,45.28
2022-11-14T15:28:44.666Z,45.44
2022-11-14T15:31:21.153Z,45.46
2022-11-14T15:34:02.022Z,45.36
2022-11-14T15:36:31.944Z,45.50
2022-11-14T15:39:01.240Z,46.03
2022-11-14T15:41:29.823Z,45.84
2022-11-14T15:44:02.007Z,46.02
2022-11-14T15:46:43.220Z,46.18
2022-11-14T15:49:18.032Z,46.47
2022-11-14T15:51:46.932Z,46.36
2022-11-14T15:54:24.832Z,46.38
2022-11-14T15:56:53.367Z,46.80
2022-11-14T15:59:21.390Z,47.04
2022-11-14T16:01:52.344Z,46.99
2022-11-14T16:04:21.012Z,47.05
2022-11-14T16:06:49.232Z,47.41
2022-11-14T16:09:18.325Z,47.15
2022-11-14T16:11:48.597Z,47.26
2022-11-14T16:14:17.130Z,47.24
2022-11-14T16:16:45.044Z,47.81
2022-11-14T16:19:16.125Z,48.03
2022-11-14T16:21:44.692Z,47.97
2022-11-14T16:24:15.180Z,47.96
2022-11-14T16:26:43.115Z,48.07
2022-11-14T16:29:12.669Z,48.28
2022-11-14T16:31:40.671Z,48.29
2022-11-14T16:34:08.990Z,48.35
2022-11-14T16:36:38.333Z,48.57
2022-11-14T16:39:11.325Z,49.06
2022-11-14T16:41:39.265Z,49.18
2022-11-14T16:44:07.298Z,49.17
2022-11-14T16:46:35.259Z,49.19
2022-11-14T16:49:03.457Z,49.59
2022-11-14T16:51:48.524Z,49.16
2022-11-14T16:54:18.985Z,49.39
2022-11-14T16:56:46.951Z,49.48
2022-11-14T16:59:15.067Z,49.63
2022-11-14T17:01:43.292Z,50.07
2022-11-14T17:04:11.231Z,49.73
2022-11-14T17:06:39.165Z,49.85
2022-11-14T17:09:07.162Z,50.20
2022-11-14T17:11:36.606Z,49.80
2022-11-14T17:14:04.524Z,50.21
2022-11-14T17:16:32.508Z,50.18
2022-11-14T17:19:01.713Z,50.18
2022-11-14T17:21:29.657Z,50.14
2022-11-14T17:23:57.731Z,50.25
2022-11-14T17:26:25.649Z,50.24
2022-11-14T17:28:54.927Z,50.31
2022-11-14T17:31:22.903Z,50.68
2022-11-14T17:33:54.222Z,50.42
2022-11-14T17:36:22.212Z,50.53
2022-11-14T17:38:50.165Z,50.72
2022-11-14T17:41:18.118Z,50.57
2022-11-14T17:43:46.031Z,50.90
2022-11-14T17:46:16.285Z,51.27
2022-11-14T17:48:44.731Z,51.17
2022-11-14T17:51:13.853Z,51.22
2022-11-14T17:53:41.793Z,51.46
2022-11-14T17:56:11.333Z,51.41
2022-11-14T17:58:39.283Z,51.68
2022-11-14T18:01:10.965Z,51.62
2022-11-14T18:03:40.310Z,51.61
2022-11-14T18:06:09.176Z,51.90
2022-11-14T18:08:37.189Z,51.85
2022-11-14T18:11:05.677Z,51.96
2022-11-14T18:13:33.637Z,52.40
2022-11-14T18:16:02.572Z,52.20
2022-11-14T18:18:32.144Z,52.37
2022-11-14T18:21:07.303Z,52.39
2022-11-14T18:23:36.051Z,52.51
2022-11-14T18:26:10.346Z,52.36
2022-11-14T18:28:38.351Z,52.41
2022-11-14T18:31:07.845Z,52.48
2022-11-14T18:33:36.644Z,52.55
2022-11-14T18:36:08.291Z,52.38
2022-11-14T18:38:36.168Z,52.46
2022-11-14T18:41:04.789Z,52.55
2022-11-14T18:43:34.173Z,52.78
2022-11-14T18:46:06.750Z,52.55
2022-11-14T18:48:34.790Z,52.75
2022-11-14T18:51:03.069Z,52.44
2022-11-14T18:53:35.510Z,52.83
2022-11-14T18:56:05.045Z,52.64
2022-11-14T18:58:33.067Z,52.68
2022-11-14T19:01:01.497Z,52.70
2022-11-14T19:03:30.137Z,52.92
2022-11-14T19:06:02.131Z,52.85
2022-11-14T19:08:30.074Z,53.20
2022-11-14T19:11:02.981Z,52.94
2022-11-14T19:13:31.227Z,52.94
2022-11-14T19:16:02.580Z,53.13
2022-11-14T19:18:30.888Z,53.16
2022-11-14T19:20:59.454Z,53.25
2022-11-14T19:23:27.477Z,53.11
2022-11-14T19:25:59.659Z,53.14
2022-11-14T19:28:29.291Z,53.20
2022-11-14T19:31:01.873Z,53.46
2022-11-14T19:33:30.303Z,53.52
2022-11-14T19:35:58.555Z,53.14
2022-11-14T19:38:26.598Z,53.31
2022-11-14T19:40:54.658Z,53.43
2022-11-14T19:43:22.657Z,53.26
2022-11-14T19:45:52.033Z,53.62
2022-11-14T19:48:19.987Z,53.49
2022-11-14T19:50:47.871Z,53.55
2022-11-14T19:53:15.826Z,53.42
2022-11-14T19:55:43.712Z,53.25
2022-11-14T19:58:11.644Z,53.57
2022-11-14T20:00:39.552Z,53.53
2022-11-14T20:03:08.807Z,53.36
2022-11-14T20:05:38.476Z,53.31
2022-11-14T20:08:07.047Z,53.44
2022-11-14T20:10:47.637Z,53.26
2022-11-14T20:13:15.834Z,53.47
2022-11-14T20:15:43.837Z,53.42
2022-11-14T20:18:13.577Z,53.45
2022-11-14T20:20:41.535Z,53.80
2022-11-14T20:23:09.686Z,53.81
2022-11-14T20:25:38.215Z,53.61
2022-11-14T20:28:08.075Z,53.65
2022-11-14T20:30:39.601Z,53.84
2022-11-14T20:33:07.773Z,53.86
2022-11-14T20:35:38.125Z,53.74
2022-11-14T20:38:06.001Z,54.15
2022-11-14T20:40:33.919Z,53.89
2022-11-14T20:43:01.930Z,53.89
2022-11-14T20:45:29.848Z,53.98
2022-11-14T20:47:57.713Z,54.04
2022-11-14T20:50:25.688Z,54.17
2022-11-14T20:52:54.989Z,54.56
2022-11-14T20:55:23.032Z,54.41
2022-11-14T20:57:51.000Z,54.36
2022-11-14T21:00:20.444Z,54.25
2022-11-14T21:02:48.357Z,54.20
2022-11-14T21:05:16.311Z,54.14
2022-11-14T21:07:44.283Z,54.50
2022-11-14T21:10:31.202Z,54.11
2022-11-14T21:13:16.642Z,54.34
2022-11-14T21:15:44.577Z,54.23
2022-11-14T21:18:12.412Z,54.00
2022-11-14T21:20:40.329Z,54.11
2022-11-14T21:23:08.569Z,54.40
2022-11-14T21:25:37.826Z,54.46
2022-11-14T21:28:05.798Z,54.03
2022-11-14T21:30:34.451Z,54.07
2022-11-14T21:33:02.401Z,54.51
2022-11-14T21:35:32.327Z,54.35
2022-11-14T21:38:00.501Z,54.30
2022-11-14T21:40:28.390Z,53.98
2022-11-14T21:42:57.653Z,54.32
2022-11-14T21:45:25.515Z,53.87
2022-11-14T21:47:53.446Z,54.20
2022-11-14T21:50:21.358Z,53.97
2022-11-14T21:52:49.227Z,54.11
2022-11-14T21:55:17.159Z,53.93
2022-11-14T21:57:45.098Z,54.41
2022-11-14T22:00:15.617Z,54.22
2022-11-14T22:03:01.443Z,54.14
2022-11-14T22:05:29.426Z,54.07
2022-11-14T22:07:57.353Z,54.48
2022-11-14T22:10:25.238Z,54.54
2022-11-14T22:12:53.118Z,54.37
2022-11-14T22:15:22.496Z,54.64
2022-11-14T22:17:50.445Z,54.59
2022-11-14T22:20:18.518Z,54.34
2022-11-14T22:22:46.400Z,54.33
2022-11-14T22:25:14.353Z,54.57
2022-11-14T22:27:42.262Z,54.36
2022-11-14T22:30:11.700Z,54.60
2022-11-14T22:32:40.987Z,54.30
2022-11-14T22:35:09.061Z,54.72
2022-11-14T22:37:37.034Z,54.51
2022-11-14T22:40:05.661Z,54.58
2022-11-14T22:42:33.509Z,54.81
2022-11-14T22:45:01.419Z,54.76
2022-11-14T22:47:29.302Z,54.69
2022-11-14T22:49:58.539Z,54.62
2022-11-14T22:52:26.367Z,55.01
2022-11-14T22:54:54.242Z,54.91
2022-11-14T22:57:22.104Z,55.19
2022-11-14T22:59:49.957Z,55.05
2022-11-14T23:02:17.815Z,54.80
2022-11-14T23:04:45.785Z,55.22
2022-11-14T23:07:15.095Z,55.11
2022-11-14T23:09:43.671Z,55.10
2022-11-14T23:12:11.677Z,54.98
2022-11-14T23:14:39.537Z,55.35
2022-11-14T23:17:07.508Z,55.35
2022-11-14T23:19:35.462Z,55.44
2022-11-14T23:22:03.534Z,55.00
2022-11-14T23:24:32.820Z,55.09
2022-11-14T23:27:00.770Z,55.09
2022-11-14T23:29:28.695Z,55.57
2022-11-14T23:31:56.594Z,55.60
2022-11-14T23:34:24.508Z,55.58
2022-11-14T23:36:52.494Z,55.90
2022-11-14T23:39:20.420Z,55.78
2022-11-14T23:41:49.672Z,55.61
2022-11-14T23:44:17.642Z,55.65
2022-11-14T23:46:45.526Z,55.80
2022-11-14T23:49:13.422Z,56.10
2022-11-14T23:51:41.577Z,56.09
2022-11-14T23:54:09.436Z,56.03
2022-11-14T23:56:37.523Z,56.16
2022-11-14T23:59:06.967Z,56.48
